Time;durP1;ratioP1;P1;durP2;ratioP2;P2;SDS_P1;SDS_P2;PMS_P1;PMS_P2;Temp;Humidity;BMP_temperature;BMP_pressure;BME280_temperature;BME280_humidity;BME280_pressure;Samples;Min_cycle;Max_cycle;Signal;HPM_P1;HPM_P2
2024/04/26 00:00:11;;;;;;;19.40;11.55;;;7.00;99.90;;;;;;5287752;26;20030;-87
2024/04/26 00:02:37;;;;;;;14.60;11.35;;;7.00;99.90;;;;;;5341869;26;20020;-87
2024/04/26 00:05:03;;;;;;;19.23;11.52;;;7.00;99.90;;;;;;5319092;26;19997;-87
2024/04/26 00:07:28;;;;;;;19.33;12.10;;;7.00;99.90;;;;;;5291573;26;20071;-86
2024/04/26 00:09:54;;;;;;;19.98;13.15;;;7.00;99.90;;;;;;5338267;26;20465;-87
2024/04/26 00:12:20;;;;;;;19.17;12.13;;;7.00;99.90;;;;;;5312475;26;20033;-88
2024/04/26 00:14:45;;;;;;;20.45;12.48;;;7.00;99.90;;;;;;5322858;26;20032;-87
2024/04/26 00:17:11;;;;;;;19.90;11.90;;;7.00;99.90;;;;;;5324217;26;20016;-87
2024/04/26 00:19:36;;;;;;;20.25;12.05;;;7.00;99.90;;;;;;5328945;26;19997;-88
2024/04/26 00:22:02;;;;;;;16.67;11.77;;;7.00;99.90;;;;;;5300806;26;20083;-87
2024/04/26 00:24:28;;;;;;;15.38;10.50;;;6.90;99.90;;;;;;5297174;27;20012;-88
2024/04/26 00:26:54;;;;;;;16.73;11.38;;;7.00;99.90;;;;;;5330432;26;20009;-88
2024/04/26 00:29:20;;;;;;;19.13;12.75;;;6.90;99.90;;;;;;5295496;26;19997;-88
2024/04/26 00:31:46;;;;;;;19.08;12.68;;;6.90;99.90;;;;;;5342310;26;20019;-88
2024/04/26 00:34:12;;;;;;;20.02;12.13;;;6.90;99.90;;;;;;5307678;26;20381;-88
2024/04/26 00:36:41;;;;;;;19.10;12.27;;;6.90;99.90;;;;;;5314751;26;20464;-87
2024/04/26 00:39:06;;;;;;;16.55;11.23;;;6.80;99.90;;;;;;5339084;26;20449;-87
2024/04/26 00:41:33;;;;;;;22.92;13.10;;;6.90;99.90;;;;;;5292338;26;20001;-88
2024/04/26 00:44:13;;;;;;;17.90;11.15;;;6.80;99.90;;;;;;5287911;27;20017;-87
2024/04/26 00:46:40;;;;;;;17.98;10.88;;;6.90;99.90;;;;;;5300623;26;20013;-87
2024/04/26 00:49:06;;;;;;;17.30;11.50;;;6.80;99.90;;;;;;5337820;26;20057;-88
2024/04/26 00:51:32;;;;;;;18.80;11.30;;;6.80;99.90;;;;;;5300135;26;20008;-87
2024/04/26 00:53:59;;;;;;;20.58;10.52;;;6.80;99.90;;;;;;5337634;26;20244;-86
2024/04/26 00:56:26;;;;;;;18.52;11.02;;;6.80;99.90;;;;;;5301264;26;20096;-88
2024/04/26 00:58:54;;;;;;;16.73;11.45;;;6.80;99.90;;;;;;5315335;26;20542;-88
2024/04/26 01:01:20;;;;;;;16.63;10.05;;;6.70;99.90;;;;;;5324959;26;19998;-88
2024/04/26 01:03:46;;;;;;;19.88;11.73;;;6.70;99.90;;;;;;5339671;26;20004;-88
2024/04/26 01:06:11;;;;;;;20.15;11.43;;;6.70;99.90;;;;;;5339274;26;20554;-87
2024/04/26 01:08:37;;;;;;;16.70;10.90;;;6.70;99.90;;;;;;5341172;26;20306;-87
2024/04/26 01:11:04;;;;;;;15.45;10.43;;;6.70;99.90;;;;;;5321924;26;20434;-88
2024/04/26 01:13:33;;;;;;;16.48;10.82;;;6.80;99.90;;;;;;5310535;26;20500;-88
2024/04/26 01:15:59;;;;;;;18.88;12.13;;;6.80;99.90;;;;;;5297510;26;20036;-87
2024/04/26 01:18:25;;;;;;;16.80;10.60;;;6.80;99.90;;;;;;5310903;26;20348;-88
2024/04/26 01:20:50;;;;;;;18.48;10.82;;;6.80;99.90;;;;;;5298679;27;20016;-88
2024/04/26 01:23:19;;;;;;;16.38;10.15;;;6.80;99.90;;;;;;5282183;26;20001;-88
2024/04/26 01:25:55;;;;;;;16.67;10.15;;;6.70;99.90;;;;;;5338124;26;20017;-88
2024/04/26 01:28:20;;;;;;;15.50;9.70;;;6.80;99.90;;;;;;5329739;26;20024;-88
2024/04/26 01:30:46;;;;;;;14.38;10.00;;;6.70;99.90;;;;;;5299154;27;20002;-88
2024/04/26 01:33:12;;;;;;;18.88;11.50;;;6.70;99.90;;;;;;5291879;26;20049;-87
2024/04/26 01:35:37;;;;;;;13.85;9.40;;;6.70;99.90;;;;;;5338602;26;20473;-87
2024/04/26 01:38:03;;;;;;;17.85;11.15;;;6.70;99.90;;;;;;5324809;26;20005;-87
2024/04/26 01:40:28;;;;;;;16.25;10.65;;;6.70;99.90;;;;;;5341776;26;20002;-87
2024/04/26 01:42:54;;;;;;;19.17;11.20;;;6.70;99.90;;;;;;5292248;26;20007;-88
2024/04/26 01:45:20;;;;;;;17.50;12.15;;;6.80;99.90;;;;;;5351019;26;20003;-87
2024/04/26 01:47:45;;;;;;;24.98;12.00;;;6.80;99.90;;;;;;5310533;27;20002;-87
2024/04/26 01:50:11;;;;;;;18.58;12.48;;;6.80;99.90;;;;;;5330808;26;20001;-87
2024/04/26 01:52:36;;;;;;;19.83;12.88;;;6.80;99.90;;;;;;5316429;26;20136;-88
2024/04/26 01:55:02;;;;;;;23.38;13.95;;;6.80;99.90;;;;;;5314172;26;20002;-87
2024/04/26 01:57:28;;;;;;;25.08;15.15;;;6.80;99.90;;;;;;5286221;27;20014;-86
2024/04/26 01:59:53;;;;;;;21.40;14.10;;;6.90;99.90;;;;;;5314948;26;20012;-87
2024/04/26 02:02:19;;;;;;;20.50;14.82;;;6.80;99.90;;;;;;5323980;26;20087;-87
2024/04/26 02:04:44;;;;;;;24.42;15.68;;;6.90;99.90;;;;;;5349924;26;20363;-87
2024/04/26 02:07:10;;;;;;;24.00;15.05;;;6.90;99.90;;;;;;5311502;26;19997;-87
2024/04/26 02:09:36;;;;;;;27.35;15.23;;;6.90;99.90;;;;;;5319936;26;20008;-87
2024/04/26 02:12:01;;;;;;;23.83;15.40;;;6.90;99.90;;;;;;5335002;26;20004;-87
2024/04/26 02:14:27;;;;;;;25.70;15.65;;;6.90;99.90;;;;;;5286572;26;20001;-88
2024/04/26 02:16:55;;;;;;;22.23;16.00;;;6.90;99.90;;;;;;5350906;26;20020;-87
2024/04/26 02:19:21;;;;;;;26.55;16.48;;;6.90;99.90;;;;;;5346111;26;20015;-88
2024/04/26 02:21:47;;;;;;;25.52;16.83;;;6.90;99.90;;;;;;5344672;26;20472;-88
2024/04/26 02:24:12;;;;;;;22.13;14.85;;;6.90;99.90;;;;;;5337450;26;20005;-87
2024/04/26 02:26:39;;;;;;;21.35;14.70;;;6.90;99.90;;;;;;5342326;26;20020;-88
2024/04/26 02:29:04;;;;;;;20.00;13.57;;;6.90;99.90;;;;;;5310301;26;20013;-88
2024/04/26 02:31:30;;;;;;;23.05;14.82;;;6.90;99.90;;;;;;5341344;26;20335;-88
2024/04/26 02:33:56;;;;;;;19.38;13.82;;;6.90;99.90;;;;;;5328091;26;20002;-87
2024/04/26 02:36:21;;;;;;;21.40;14.25;;;6.90;99.90;;;;;;5332446;26;19996;-87
2024/04/26 02:38:47;;;;;;;23.05;14.95;;;6.90;99.90;;;;;;5306867;26;20066;-88
2024/04/26 02:41:14;;;;;;;20.63;14.25;;;6.90;99.90;;;;;;5310709;26;19994;-88
2024/04/26 02:43:41;;;;;;;21.10;13.88;;;6.80;99.90;;;;;;5294529;27;20006;-87
2024/04/26 02:46:10;;;;;;;24.67;14.38;;;6.80;99.90;;;;;;5306747;26;20005;-87
2024/04/26 02:48:36;;;;;;;25.30;15.70;;;6.80;99.90;;;;;;5300434;26;20012;-87
2024/04/26 02:51:02;;;;;;;24.15;15.13;;;6.80;99.90;;;;;;5330856;26;20008;-87
2024/04/26 02:53:27;;;;;;;26.90;16.38;;;6.80;99.90;;;;;;5334006;26;19997;-87
2024/04/26 02:55:53;;;;;;;25.23;15.88;;;6.80;99.90;;;;;;5331012;26;20009;-87
2024/04/26 02:58:19;;;;;;;26.20;16.35;;;6.90;99.90;;;;;;5328001;26;20129;-87
2024/04/26 03:00:44;;;;;;;22.92;15.02;;;6.80;99.90;;;;;;5322701;26;20012;-87
2024/04/26 03:03:10;;;;;;;22.75;15.07;;;6.90;99.90;;;;;;5324424;26;20009;-87
2024/04/26 03:05:35;;;;;;;24.30;14.60;;;6.90;99.90;;;;;;5328645;26;20002;-88
2024/04/26 03:08:02;;;;;;;23.40;14.52;;;6.90;99.90;;;;;;5298353;26;20021;-86
2024/04/26 03:10:28;;;;;;;25.83;14.55;;;6.90;99.90;;;;;;5346763;26;19996;-87
2024/04/26 03:12:53;;;;;;;23.40;13.88;;;6.90;99.90;;;;;;5326304;26;20465;-87
2024/04/26 03:15:19;;;;;;;23.25;14.70;;;6.90;99.90;;;;;;5298071;26;20012;-87
2024/04/26 03:17:44;;;;;;;22.40;14.95;;;6.80;99.90;;;;;;5299631;26;19997;-87
2024/04/26 03:20:10;;;;;;;20.70;13.90;;;6.80;99.90;;;;;;5292351;26;20029;-87
2024/04/26 03:22:36;;;;;;;22.80;14.68;;;6.80;99.90;;;;;;5293229;26;20033;-87
2024/04/26 03:25:02;;;;;;;25.77;14.32;;;6.80;99.90;;;;;;5312831;26;20247;-84
2024/04/26 03:27:29;;;;;;;25.65;15.60;;;6.80;99.90;;;;;;5339550;26;20080;-87
2024/04/26 03:29:55;;;;;;;24.55;14.48;;;6.80;99.90;;;;;;5341856;26;20013;-86
2024/04/26 03:32:20;;;;;;;20.92;14.57;;;6.80;99.90;;;;;;5338035;26;20075;-86
2024/04/26 03:34:46;;;;;;;21.55;13.07;;;6.80;99.90;;;;;;5287131;26;20135;-86
2024/04/26 03:37:11;;;;;;;23.98;14.07;;;6.80;99.90;;;;;;5310170;26;20036;-86
2024/04/26 03:39:37;;;;;;;22.25;13.35;;;6.80;99.90;;;;;;5333653;26;20068;-86
2024/04/26 03:42:03;;;;;;;21.42;13.00;;;6.80;99.90;;;;;;5343572;26;19997;-87
2024/04/26 03:44:29;;;;;;;23.13;12.95;;;6.80;99.90;;;;;;5286240;26;20006;-87
2024/04/26 03:46:55;;;;;;;20.30;12.50;;;6.80;99.90;;;;;;5283383;27;20033;-87
2024/04/26 03:49:21;;;;;;;20.98;12.45;;;6.80;99.90;;;;;;5281159;27;20012;-87
2024/04/26 03:51:46;;;;;;;23.20;12.60;;;6.80;99.90;;;;;;5340193;26;20409;-87
2024/04/26 03:54:12;;;;;;;18.08;11.32;;;6.80;99.90;;;;;;5345703;26;19997;-87
2024/04/26 03:56:37;;;;;;;18.38;11.80;;;6.80;99.90;;;;;;5334454;26;20012;-87
2024/04/26 03:59:03;;;;;;;20.27;11.90;;;6.80;99.90;;;;;;5346148;26;20009;-87
2024/04/26 04:01:28;;;;;;;21.17;12.10;;;6.80;99.90;;;;;;5338808;26;20052;-86
2024/04/26 04:03:54;;;;;;;18.85;12.50;;;6.80;99.90;;;;;;5316916;26;20016;-86
2024/04/26 04:06:20;;;;;;;20.23;11.00;;;6.80;99.90;;;;;;5314070;26;20004;-87
2024/04/26 04:08:47;;;;;;;18.60;11.65;;;6.80;99.90;;;;;;5284571;27;19997;-86
2024/04/26 04:11:14;;;;;;;21.10;12.05;;;6.70;99.90;;;;;;5302748;27;20472;-86
2024/04/26 04:13:39;;;;;;;20.20;11.98;;;6.70;99.90;;;;;;5319581;26;20016;-86
2024/04/26 04:16:05;;;;;;;18.35;11.70;;;6.70;99.90;;;;;;5315933;26;19997;-87
2024/04/26 04:18:31;;;;;;;20.02;10.98;;;6.70;99.90;;;;;;5316278;26;20001;-86
2024/04/26 04:20:56;;;;;;;15.77;8.85;;;6.70;99.90;;;;;;5313339;26;20005;-86
2024/04/26 04:23:22;;;;;;;16.88;9.90;;;6.70;99.90;;;;;;5289815;26;20079;-86
2024/04/26 04:25:49;;;;;;;17.95;10.38;;;6.70;99.90;;;;;;5289295;27;20001;-86
2024/04/26 04:28:14;;;;;;;14.30;9.30;;;6.70;99.90;;;;;;5313817;26;20001;-86
2024/04/26 04:30:40;;;;;;;18.70;11.10;;;6.60;99.90;;;;;;5326998;26;20012;-87
2024/04/26 04:33:06;;;;;;;19.83;11.85;;;6.70;99.90;;;;;;5345730;26;19997;-86
2024/04/26 04:35:31;;;;;;;22.98;11.98;;;6.60;99.90;;;;;;5319480;26;20006;-86
2024/04/26 04:37:58;;;;;;;18.45;11.75;;;6.70;99.90;;;;;;5309711;27;20008;-86
2024/04/26 04:40:24;;;;;;;21.25;11.68;;;6.60;99.90;;;;;;5312453;27;20002;-87
2024/04/26 04:42:49;;;;;;;20.27;12.38;;;6.60;99.90;;;;;;5325608;26;20001;-86
2024/04/26 04:45:15;;;;;;;20.92;12.75;;;6.60;99.90;;;;;;5327778;26;20005;-87
2024/04/26 04:47:40;;;;;;;21.83;13.40;;;6.70;99.90;;;;;;5336014;26;20008;-85
2024/04/26 04:50:06;;;;;;;24.85;12.27;;;6.60;99.90;;;;;;5336034;26;20025;-86
2024/04/26 04:52:32;;;;;;;19.95;11.52;;;6.60;99.90;;;;;;5311268;26;20002;-87
2024/04/26 04:54:57;;;;;;;18.52;11.25;;;6.60;99.90;;;;;;5318821;26;20005;-85
2024/04/26 04:57:23;;;;;;;15.05;9.82;;;6.70;99.90;;;;;;5309254;27;20001;-87
2024/04/26 04:59:49;;;;;;;17.90;9.68;;;6.60;99.90;;;;;;5313260;26;20001;-87
2024/04/26 05:02:14;;;;;;;14.77;9.07;;;6.70;99.90;;;;;;5286072;27;19998;-89
2024/04/26 05:04:40;;;;;;;14.63;8.40;;;6.60;99.90;;;;;;5336228;26;20461;-87
2024/04/26 05:07:06;;;;;;;14.70;7.88;;;6.60;99.90;;;;;;5336746;26;20000;-86
2024/04/26 05:09:32;;;;;;;13.27;7.50;;;6.70;99.90;;;;;;5322305;26;20001;-86
2024/04/26 05:11:57;;;;;;;12.38;7.55;;;6.60;99.90;;;;;;5322792;26;20049;-85
2024/04/26 05:14:23;;;;;;;15.13;7.32;;;6.60;99.90;;;;;;5310250;26;20082;-87
2024/04/26 05:16:49;;;;;;;9.43;5.85;;;6.60;99.90;;;;;;5294705;27;20012;-86
2024/04/26 05:19:14;;;;;;;10.65;5.63;;;6.60;99.90;;;;;;5299606;26;20013;-87
2024/04/26 05:21:40;;;;;;;8.30;5.78;;;6.60;99.90;;;;;;5348799;26;20106;-87
2024/04/26 05:24:05;;;;;;;8.27;5.53;;;6.60;99.90;;;;;;5323817;26;20045;-86
2024/04/26 05:26:31;;;;;;;11.05;6.32;;;6.60;99.90;;;;;;5314324;26;20017;-86
2024/04/26 05:28:57;;;;;;;8.77;5.55;;;6.60;99.90;;;;;;5296768;27;20016;-87
2024/04/26 05:31:22;;;;;;;9.25;5.82;;;6.60;99.90;;;;;;5335637;26;20001;-87
2024/04/26 05:33:48;;;;;;;9.80;6.03;;;6.70;99.90;;;;;;5318369;26;20078;-87
2024/04/26 05:36:13;;;;;;;12.30;6.72;;;6.70;99.90;;;;;;5346564;26;20051;-87
2024/04/26 05:38:39;;;;;;;11.45;6.70;;;6.70;99.90;;;;;;5315608;26;20008;-86
2024/04/26 05:41:05;;;;;;;11.35;6.43;;;6.80;99.90;;;;;;5333127;26;20075;-87
2024/04/26 05:43:30;;;;;;;11.88;7.15;;;6.80;99.90;;;;;;5336969;26;20468;-86
2024/04/26 05:45:56;;;;;;;11.65;7.28;;;6.80;99.90;;;;;;5285825;26;19996;-85
2024/04/26 05:48:22;;;;;;;18.40;6.85;;;6.90;99.90;;;;;;5325224;26;20019;-86
2024/04/26 05:50:48;;;;;;;33.28;15.52;;;6.90;99.90;;;;;;5333063;26;20348;-86
2024/04/26 05:53:13;;;;;;;20.13;10.93;;;6.90;99.90;;;;;;5298718;26;20127;-86
2024/04/26 05:55:39;;;;;;;13.32;8.07;;;6.90;99.90;;;;;;5291638;27;20391;-86
2024/04/26 05:58:08;;;;;;;14.70;8.52;;;7.00;99.90;;;;;;5345803;26;20025;-86
2024/04/26 06:00:35;;;;;;;12.75;7.85;;;7.10;99.90;;;;;;5313079;26;20002;-87
2024/04/26 06:03:01;;;;;;;21.20;10.43;;;7.10;99.90;;;;;;5288829;27;20467;-87
2024/04/26 06:05:29;;;;;;;14.10;8.80;;;7.20;99.90;;;;;;5291174;26;19997;-86
2024/04/26 06:07:54;;;;;;;16.13;8.48;;;7.20;99.90;;;;;;5286373;26;20001;-87
2024/04/26 06:10:20;;;;;;;13.70;8.00;;;7.30;99.90;;;;;;5285487;27;20001;-87
2024/04/26 06:12:46;;;;;;;16.63;8.88;;;7.30;99.90;;;;;;5283571;27;20001;-87
2024/04/26 06:15:12;;;;;;;15.00;8.23;;;7.30;99.90;;;;;;5288752;26;20016;-88
2024/04/26 06:17:37;;;;;;;16.50;9.02;;;7.30;99.90;;;;;;5296436;26;20002;-87
2024/04/26 06:20:03;;;;;;;13.50;8.20;;;7.30;99.90;;;;;;5297099;27;20008;-87
2024/04/26 06:22:29;;;;;;;13.93;9.07;;;7.30;99.90;;;;;;5287538;26;20012;-87
2024/04/26 06:24:55;;;;;;;14.07;9.07;;;7.30;99.90;;;;;;5335017;26;20005;-87
2024/04/26 06:27:20;;;;;;;14.38;8.45;;;7.30;99.90;;;;;;5310712;26;20030;-88
2024/04/26 06:29:46;;;;;;;15.52;9.35;;;7.30;99.90;;;;;;5317415;26;20013;-86
2024/04/26 06:32:11;;;;;;;13.40;8.10;;;7.40;99.90;;;;;;5315642;26;20066;-87
2024/04/26 06:34:37;;;;;;;13.52;8.43;;;7.50;99.90;;;;;;5337066;26;20004;-88
2024/04/26 06:37:06;;;;;;;12.27;8.18;;;7.50;99.90;;;;;;5314460;26;20345;-86
2024/04/26 06:39:33;;;;;;;16.30;8.55;;;7.50;99.90;;;;;;5310536;26;20012;-87
2024/04/26 06:41:58;;;;;;;14.50;8.20;;;7.60;99.90;;;;;;5330515;26;20006;-87
2024/04/26 06:44:24;;;;;;;12.93;7.88;;;7.70;99.90;;;;;;5310401;26;20022;-87
2024/04/26 06:46:50;;;;;;;12.80;8.38;;;7.70;99.90;;;;;;5323032;26;20001;-88
2024/04/26 06:49:15;;;;;;;14.50;8.75;;;7.80;99.90;;;;;;5320607;26;20156;-87
2024/04/26 06:51:41;;;;;;;15.68;8.85;;;7.90;99.90;;;;;;5336537;26;20008;-87
2024/04/26 06:54:06;;;;;;;16.50;9.95;;;8.10;99.90;;;;;;5346805;26;19993;-86
2024/04/26 06:56:32;;;;;;;15.35;9.75;;;8.20;99.90;;;;;;5321088;26;20001;-87
2024/04/26 06:58:57;;;;;;;15.25;9.13;;;8.30;99.90;;;;;;5320365;26;19996;-86
2024/04/26 07:01:23;;;;;;;13.70;9.73;;;8.40;99.90;;;;;;5303019;26;20345;-86
2024/04/26 07:03:49;;;;;;;13.88;9.32;;;8.50;99.90;;;;;;5337648;26;20438;-86
2024/04/26 07:06:14;;;;;;;15.07;10.32;;;8.60;99.90;;;;;;5289304;26;20025;-86
2024/04/26 07:08:40;;;;;;;13.80;9.40;;;8.70;99.90;;;;;;5306278;26;20002;-87
2024/04/26 07:11:10;;;;;;;14.98;9.02;;;8.70;99.90;;;;;;5319146;26;19997;-86
2024/04/26 07:13:36;;;;;;;15.77;10.00;;;8.70;99.90;;;;;;5296343;26;20016;-87
2024/04/26 07:16:02;;;;;;;16.02;10.13;;;8.70;99.90;;;;;;5342005;26;20493;-86
2024/04/26 07:18:27;;;;;;;13.38;8.60;;;8.60;99.90;;;;;;5290257;26;20053;-86
2024/04/26 07:20:56;;;;;;;15.10;9.32;;;8.60;99.90;;;;;;5297322;26;19998;-86
2024/04/26 07:23:24;;;;;;;11.00;8.02;;;8.50;99.90;;;;;;5285760;26;20075;-85
2024/04/26 07:25:50;;;;;;;14.57;9.05;;;8.50;99.90;;;;;;5316365;26;20489;-86
2024/04/26 07:28:16;;;;;;;11.88;8.18;;;8.30;99.90;;;;;;5329919;26;20002;-86
2024/04/26 07:30:43;;;;;;;14.43;8.70;;;8.20;99.90;;;;;;5336516;26;20009;-85
2024/04/26 07:33:08;;;;;;;13.13;8.90;;;8.10;99.90;;;;;;5300500;26;20333;-86
2024/04/26 07:35:34;;;;;;;16.20;9.00;;;8.00;99.90;;;;;;5293981;26;20461;-86
2024/04/26 07:38:00;;;;;;;15.35;8.93;;;8.20;99.90;;;;;;5291406;27;19997;-86
2024/04/26 07:40:26;;;;;;;14.98;8.07;;;8.30;99.90;;;;;;5296203;26;20001;-85
2024/04/26 07:42:51;;;;;;;11.13;7.13;;;8.40;99.90;;;;;;5346030;26;20045;-85
2024/04/26 07:45:17;;;;;;;11.15;7.07;;;8.50;99.90;;;;;;5343668;26;20024;-87
2024/04/26 07:47:43;;;;;;;12.45;7.57;;;8.70;99.90;;;;;;5286368;26;20108;-86
2024/04/26 07:50:08;;;;;;;11.98;7.30;;;8.70;99.90;;;;;;5314489;26;20033;-87
2024/04/26 07:52:34;;;;;;;10.70;7.40;;;8.90;99.90;;;;;;5342274;26;20001;-86
2024/04/26 07:54:59;;;;;;;9.00;6.22;;;9.00;99.90;;;;;;5308676;26;20005;-86
2024/04/26 07:57:26;;;;;;;8.23;4.70;;;9.10;99.90;;;;;;5326427;26;20013;-86
2024/04/26 07:59:52;;;;;;;9.15;5.40;;;9.20;99.90;;;;;;5296838;26;20364;-87
2024/04/26 08:02:18;;;;;;;6.18;4.47;;;9.30;99.90;;;;;;5344116;26;20037;-85
2024/04/26 08:04:44;;;;;;;5.65;3.80;;;9.20;99.90;;;;;;5299335;27;20405;-86
2024/04/26 08:07:09;;;;;;;6.15;3.70;;;9.30;99.90;;;;;;5313378;26;20009;-86
2024/04/26 08:09:37;;;;;;;7.95;4.28;;;9.30;99.90;;;;;;5283993;27;20019;-86
2024/04/26 08:12:03;;;;;;;13.23;4.05;;;9.40;99.90;;;;;;5305973;26;20015;-86
2024/04/26 08:14:28;;;;;;;7.22;4.13;;;9.40;99.90;;;;;;5328744;26;20002;-87
2024/04/26 08:16:54;;;;;;;5.32;3.17;;;9.40;99.90;;;;;;5315933;26;20076;-86
2024/04/26 08:19:21;;;;;;;8.57;3.33;;;9.50;99.90;;;;;;5336132;26;20016;-86
2024/04/26 08:21:48;;;;;;;7.80;3.78;;;9.50;99.90;;;;;;5285236;27;20006;-85
2024/04/26 08:24:14;;;;;;;7.53;3.60;;;9.70;99.90;;;;;;5343370;26;20001;-86
2024/04/26 08:26:39;;;;;;;5.88;3.65;;;9.90;99.90;;;;;;5337639;26;20087;-86
2024/04/26 08:29:05;;;;;;;6.93;3.33;;;10.10;99.90;;;;;;5343241;26;20004;-86
2024/04/26 08:31:31;;;;;;;6.38;3.90;;;10.10;99.90;;;;;;5311250;26;20005;-86
2024/04/26 08:33:56;;;;;;;7.15;3.67;;;10.10;99.90;;;;;;5314775;26;20044;-86
2024/04/26 08:36:22;;;;;;;8.55;3.90;;;10.20;99.90;;;;;;5334118;26;20041;-85
2024/04/26 08:38:53;;;;;;;10.23;2.97;;;10.20;99.90;;;;;;5296940;26;20001;-86
2024/04/26 08:41:22;;;;;;;4.75;1.58;;;10.30;99.90;;;;;;5300605;26;20072;-86
2024/04/26 08:43:48;;;;;;;6.65;2.28;;;10.40;99.90;;;;;;5313066;26;20069;-86
2024/04/26 08:46:15;;;;;;;3.58;2.78;;;10.50;99.90;;;;;;5342353;26;19997;-86
2024/04/26 08:48:44;;;;;;;4.95;2.88;;;10.70;99.90;;;;;;5330382;26;20002;-87
2024/04/26 08:51:12;;;;;;;7.30;3.28;;;10.70;99.90;;;;;;5308890;26;20004;-87
2024/04/26 08:53:38;;;;;;;3.67;3.15;;;10.90;99.90;;;;;;5299057;27;20016;-87
2024/04/26 08:56:07;;;;;;;6.07;2.95;;;11.00;99.90;;;;;;5302463;26;19997;-86
2024/04/26 08:58:33;;;;;;;4.07;2.45;;;11.20;99.90;;;;;;5284793;27;20011;-86
2024/04/26 09:00:58;;;;;;;7.28;2.40;;;11.30;99.90;;;;;;5308634;26;20005;-86
2024/04/26 09:03:24;;;;;;;4.25;2.25;;;11.30;99.90;;;;;;5308338;26;20008;-86
2024/04/26 09:05:52;;;;;;;5.88;2.60;;;11.10;99.90;;;;;;5338356;26;20005;-86
2024/04/26 09:08:17;;;;;;;4.32;2.85;;;11.00;99.90;;;;;;5304197;26;20390;-87
2024/04/26 09:10:43;;;;;;;5.60;2.80;;;10.90;99.90;;;;;;5305521;27;20053;-86
2024/04/26 09:13:10;;;;;;;4.72;3.03;;;10.90;99.90;;;;;;5320076;26;20461;-86
2024/04/26 09:15:36;;;;;;;7.32;3.55;;;11.10;99.90;;;;;;5291309;27;20045;-86
2024/04/26 09:18:01;;;;;;;4.35;2.95;;;11.30;99.90;;;;;;5289240;26;20053;-86
2024/04/26 09:20:27;;;;;;;4.00;2.38;;;11.40;99.90;;;;;;5299240;27;19997;-87
2024/04/26 09:22:53;;;;;;;4.82;2.83;;;11.60;99.90;;;;;;5331696;26;19997;-86
2024/04/26 09:25:19;;;;;;;8.77;3.20;;;11.60;99.90;;;;;;5298022;26;19997;-87
2024/04/26 09:27:44;;;;;;;4.53;2.53;;;11.60;99.90;;;;;;5330625;26;20037;-87
2024/04/26 09:30:10;;;;;;;4.20;2.15;;;11.70;99.90;;;;;;5335346;26;19998;-87
2024/04/26 09:32:37;;;;;;;5.82;2.28;;;11.90;99.90;;;;;;5347609;26;20008;-88
2024/04/26 09:35:04;;;;;;;2.83;2.08;;;11.90;99.90;;;;;;5339100;26;20006;-87
2024/04/26 09:37:33;;;;;;;3.80;2.53;;;11.90;99.90;;;;;;5294104;27;20080;-86
2024/04/26 09:40:00;;;;;;;4.97;2.85;;;11.70;99.90;;;;;;5291359;26;20442;-88
2024/04/26 09:42:29;;;;;;;4.63;2.60;;;11.50;99.90;;;;;;5284303;26;20072;-87
2024/04/26 09:44:54;;;;;;;5.30;1.73;;;11.30;99.90;;;;;;5323833;26;20372;-87
2024/04/26 09:47:25;;;;;;;4.13;1.77;;;11.10;99.90;;;;;;5313520;26;20002;-88
2024/04/26 09:49:51;;;;;;;5.10;1.92;;;11.00;99.90;;;;;;5311527;26;20016;-87
2024/04/26 09:52:17;;;;;;;5.75;1.83;;;11.10;99.90;;;;;;5328022;26;20489;-87
2024/04/26 09:54:47;;;;;;;4.07;1.92;;;11.40;99.90;;;;;;5336554;26;20067;-86
2024/04/26 09:57:13;;;;;;;6.50;2.30;;;11.50;99.90;;;;;;5332298;26;20029;-87
2024/04/26 09:59:40;;;;;;;5.50;2.10;;;11.60;99.90;;;;;;5293164;26;20341;-87
2024/04/26 10:02:10;;;;;;;2.80;1.48;;;11.50;99.90;;;;;;5297242;26;20456;-86
2024/04/26 10:04:37;;;;;;;5.05;1.70;;;11.40;99.90;;;;;;5297042;26;20001;-86
2024/04/26 10:07:03;;;;;;;5.93;1.27;;;11.20;99.90;;;;;;5312568;26;20326;-87
2024/04/26 10:09:29;;;;;;;2.53;1.40;;;11.10;99.90;;;;;;5313630;26;20078;-87
2024/04/26 10:11:54;;;;;;;4.53;1.20;;;11.00;99.90;;;;;;5341546;26;20016;-87
2024/04/26 10:14:27;;;;;;;3.85;0.82;;;10.90;99.90;;;;;;5317365;26;20001;-85
2024/04/26 10:16:54;;;;;;;4.03;0.98;;;10.90;99.90;;;;;;5305454;27;20002;-85
2024/04/26 10:19:20;;;;;;;1.75;0.68;;;10.90;99.90;;;;;;5301745;26;20016;-87
2024/04/26 10:21:45;;;;;;;3.05;0.63;;;11.10;99.90;;;;;;5284647;27;20006;-87
2024/04/26 10:24:11;;;;;;;3.10;0.47;;;11.20;99.90;;;;;;5315315;26;20327;-87
2024/04/26 10:26:37;;;;;;;0.95;0.40;;;11.40;99.90;;;;;;5314192;26;20001;-87
2024/04/26 10:29:11;;;;;;;2.50;0.50;;;11.70;99.90;;;;;;5346909;26;20341;-87
2024/04/26 10:31:39;;;;;;;4.10;0.50;;;11.90;99.90;;;;;;5285561;27;20446;-87
2024/04/26 10:34:18;;;;;;;1.30;0.40;;;12.20;99.90;;;;;;5314278;26;20009;-86
2024/04/26 10:36:45;;;;;;;2.97;0.40;;;12.40;99.90;;;;;;5337163;26;20013;-88
2024/04/26 10:39:21;;;;;;;1.83;0.50;;;12.40;99.90;;;;;;5339002;26;20345;-87
2024/04/26 10:41:47;;;;;;;5.57;0.90;;;12.40;99.90;;;;;;5303500;26;19998;-87
2024/04/26 10:44:13;;;;;;;1.80;0.30;;;12.30;99.90;;;;;;5325020;26;20008;-87
2024/04/26 10:46:39;;;;;;;4.70;0.73;;;12.30;99.90;;;;;;5296837;26;20001;-86
2024/04/26 10:49:13;;;;;;;0.93;0.40;;;12.30;99.90;;;;;;5332030;26;20009;-87
2024/04/26 10:51:39;;;;;;;1.88;0.40;;;12.10;99.90;;;;;;5326370;26;20005;-86
2024/04/26 10:54:06;;;;;;;2.20;0.40;;;11.90;99.90;;;;;;5349415;26;20012;-86
2024/04/26 10:56:41;;;;;;;1.02;0.30;;;11.60;99.90;;;;;;5349337;26;20012;-87
2024/04/26 10:59:23;;;;;;;1.83;0.35;;;11.50;99.90;;;;;;5349083;26;20001;-86
2024/04/26 11:02:02;;;;;;;2.88;0.32;;;11.50;99.90;;;;;;5319708;26;20001;-87
2024/04/26 11:04:32;;;;;;;2.83;0.30;;;11.50;99.90;;;;;;5317136;26;20019;-86
2024/04/26 11:07:09;;;;;;;1.90;0.30;;;11.60;99.90;;;;;;5284431;27;20017;-86
2024/04/26 11:09:44;;;;;;;2.85;0.40;;;11.90;99.90;;;;;;5315276;27;19993;-87
2024/04/26 11:12:10;;;;;;;0.88;0.30;;;12.10;99.90;;;;;;5289548;26;20032;-87
2024/04/26 11:14:35;;;;;;;3.20;0.32;;;12.20;99.90;;;;;;5349343;26;20008;-87
2024/04/26 11:17:01;;;;;;;1.75;0.20;;;12.40;99.90;;;;;;5336184;26;20453;-86
2024/04/26 11:19:32;;;;;;;1.75;0.30;;;12.50;99.90;;;;;;5284413;27;20006;-87
2024/04/26 11:21:58;;;;;;;1.35;0.30;;;12.60;99.90;;;;;;5318063;26;20000;-85
2024/04/26 11:24:26;;;;;;;3.22;0.38;;;12.80;99.90;;;;;;5328222;26;20473;-87
2024/04/26 11:26:56;;;;;;;1.50;0.30;;;12.80;99.90;;;;;;5284794;27;20076;-86
2024/04/26 11:29:21;;;;;;;1.42;0.30;;;12.90;99.90;;;;;;5314257;26;20012;-87
2024/04/26 11:31:47;;;;;;;0.82;0.20;;;13.00;99.90;;;;;;5313783;26;20004;-86
2024/04/26 11:34:13;;;;;;;0.93;0.20;;;13.20;99.90;;;;;;5318265;26;20463;-87
2024/04/26 11:36:43;;;;;;;1.90;0.20;;;13.40;99.90;;;;;;5323488;26;20015;-87
2024/04/26 11:39:09;;;;;;;1.65;0.20;;;13.50;99.90;;;;;;5314291;26;20099;-85
2024/04/26 11:41:35;;;;;;;0.93;0.13;;;13.50;99.90;;;;;;5349443;26;20012;-86
2024/04/26 11:44:01;;;;;;;0.63;0.20;;;13.50;99.90;;;;;;5318349;26;19997;-85
2024/04/26 11:46:27;;;;;;;1.48;0.20;;;13.60;99.50;;;;;;5329368;26;20036;-85
2024/04/26 11:48:53;;;;;;;2.83;0.20;;;13.50;98.10;;;;;;5318271;26;20515;-85
2024/04/26 11:51:19;;;;;;;2.28;0.20;;;13.40;96.50;;;;;;5296575;27;20024;-85
2024/04/26 11:53:45;;;;;;;2.25;0.28;;;13.20;96.50;;;;;;5306162;26;19997;-85
2024/04/26 11:56:15;;;;;;;1.23;0.20;;;13.30;97.30;;;;;;5348073;26;20003;-85
2024/04/26 11:58:41;;;;;;;1.60;0.20;;;13.40;97.10;;;;;;5349424;26;20020;-85
2024/04/26 12:01:06;;;;;;;2.08;0.30;;;13.30;97.30;;;;;;5348185;26;20028;-85
2024/04/26 12:03:32;;;;;;;2.70;0.20;;;13.30;97.40;;;;;;5310559;26;20347;-86
2024/04/26 12:05:58;;;;;;;1.77;0.20;;;13.40;97.70;;;;;;5309365;26;19990;-85
2024/04/26 12:08:25;;;;;;;0.85;0.35;;;13.40;97.50;;;;;;5341256;26;20002;-85
2024/04/26 12:10:50;;;;;;;0.68;0.30;;;13.40;97.40;;;;;;5314705;27;19997;-85
2024/04/26 12:13:16;;;;;;;2.35;0.20;;;13.40;97.40;;;;;;5283625;27;20009;-85
2024/04/26 12:15:42;;;;;;;1.67;0.32;;;13.60;97.30;;;;;;5307051;27;19997;-85
2024/04/26 12:18:10;;;;;;;3.10;0.17;;;13.70;97.10;;;;;;5312457;27;20010;-85
2024/04/26 12:20:36;;;;;;;1.85;0.10;;;13.90;96.40;;;;;;5340572;26;20009;-86
2024/04/26 12:23:02;;;;;;;1.40;0.13;;;13.80;95.80;;;;;;5307607;27;20002;-85
2024/04/26 12:25:27;;;;;;;1.23;0.20;;;13.80;95.80;;;;;;5324446;26;20001;-85
2024/04/26 12:27:53;;;;;;;1.63;0.60;;;13.90;95.30;;;;;;5316219;26;20004;-86
2024/04/26 12:30:18;;;;;;;2.50;0.10;;;13.80;94.20;;;;;;5313494;27;20001;-85
2024/04/26 12:32:44;;;;;;;0.63;0.05;;;13.80;94.60;;;;;;5313609;26;20013;-86
2024/04/26 12:35:09;;;;;;;1.80;0.20;;;13.90;93.90;;;;;;5285511;26;20341;-85
2024/04/26 12:37:36;;;;;;;0.85;0.20;;;14.10;93.40;;;;;;5338571;26;20001;-85